Time;durP1;ratioP1;P1;durP2;ratioP2;P2;SDS_P1;SDS_P2;PMS_P1;PMS_P2;Temp;Humidity;BMP_temperature;BMP_pressure;BME280_temperature;BME280_humidity;BME280_pressure;Samples;Min_cycle;Max_cycle;Signal;HPM_P1;HPM_P2
2022/11/22 00:01:25;;;;;;;;;16.00;14.25;;;;;22.19;48.85;99184.59;5037119;28;45456;-75
2022/11/22 00:03:51;;;;;;;;;13.25;13.25;;;;;22.05;48.06;99173.34;5036183;28;45497;-75
2022/11/22 00:06:16;;;;;;;;;11.25;11.00;;;;;22.11;48.77;99182.25;5036749;28;46354;-75
2022/11/22 00:08:41;;;;;;;;;10.00;10.00;;;;;22.08;48.33;99180.84;5036690;28;45445;-77
2022/11/22 00:11:07;;;;;;;;;12.50;12.50;;;;;21.87;47.96;99151.13;5036932;28;45426;-75
2022/11/22 00:13:32;;;;;;;;;15.50;13.75;;;;;22.13;48.65;99183.66;5036856;28;45406;-75
2022/11/22 00:16:02;;;;;;;;;13.00;11.75;;;;;22.17;48.53;99197.25;5036436;28;45439;-75
2022/11/22 00:18:29;;;;;;;;;15.25;13.50;;;;;22.16;48.43;99196.44;5036326;28;45370;-75
2022/11/22 00:20:54;;;;;;;;;13.25;12.00;;;;;22.03;48.21;99175.41;5036620;28;45405;-75
2022/11/22 00:23:20;;;;;;;;;14.75;14.75;;;;;22.13;48.07;99183.66;5036434;28;45228;-75
2022/11/22 00:25:45;;;;;;;;;10.00;10.00;;;;;22.14;48.34;99181.81;5036388;28;46226;-76
2022/11/22 00:28:11;;;;;;;;;13.00;13.00;;;;;22.03;48.43;99160.34;5036400;28;45408;-76
2022/11/22 00:30:36;;;;;;;;;14.25;14.25;;;;;22.15;48.35;99178.13;5036649;28;45423;-76
2022/11/22 00:33:01;;;;;;;;;12.50;12.50;;;;;22.02;47.72;99150.75;5036207;28;45444;-76
2022/11/22 00:35:27;;;;;;;;;11.75;9.25;;;;;21.91;48.29;99139.06;5036342;28;45468;-76
2022/11/22 00:37:52;;;;;;;;;13.50;12.00;;;;;22.00;47.75;99152.00;5036297;28;45469;-76
2022/11/22 00:40:17;;;;;;;;;12.00;12.00;;;;;22.10;47.75;99162.06;5036250;28;46434;-75
2022/11/22 00:42:43;;;;;;;;;13.50;13.25;;;;;22.03;47.63;99152.38;5036169;28;45490;-76
2022/11/22 00:45:09;;;;;;;;;13.50;11.75;;;;;22.11;48.11;99158.41;5036129;28;46492;-76
2022/11/22 00:47:34;;;;;;;;;11.75;11.50;;;;;21.99;47.74;99121.28;5035796;28;45311;-76
2022/11/22 00:49:59;;;;;;;;;12.00;11.00;;;;;22.10;47.51;99143.53;5036205;28;45267;-75
2022/11/22 00:52:24;;;;;;;;;12.50;12.50;;;;;21.86;47.86;99112.41;5036001;28;45358;-76
2022/11/22 00:54:50;;;;;;;;;11.50;11.00;;;;;21.91;48.13;99102.00;5035710;28;45173;-76
2022/11/22 00:57:15;;;;;;;;;9.50;9.50;;;;;22.06;47.51;99124.66;5036038;28;45215;-76
2022/11/22 00:59:40;;;;;;;;;15.25;11.50;;;;;22.04;47.57;99119.56;5035902;28;45256;-77
2022/11/22 01:02:06;;;;;;;;;11.50;11.50;;;;;22.04;47.53;99118.78;5035341;28;47327;-75
2022/11/22 01:04:31;;;;;;;;;13.75;12.75;;;;;21.93;47.43;99113.19;5035461;28;46121;-75
2022/11/22 01:06:56;;;;;;;;;13.50;11.00;;;;;22.14;47.89;99136.78;5035834;28;45307;-76
2022/11/22 01:09:22;;;;;;;;;11.50;10.50;;;;;22.12;47.81;99131.69;5035790;28;45288;-76
2022/11/22 01:11:48;;;;;;;;;9.75;9.00;;;;;22.10;47.75;99133.75;5036020;28;45432;-76
2022/11/22 01:14:15;;;;;;;;;12.50;11.00;;;;;22.13;47.41;99140.44;5035647;28;46362;-75
2022/11/22 01:16:42;;;;;;;;;9.25;9.25;;;;;22.13;47.50;99143.09;5035196;28;45366;-76
2022/11/22 01:19:07;;;;;;;;;10.00;9.00;;;;;22.06;47.45;99128.13;5035913;28;45367;-75
2022/11/22 01:21:33;;;;;;;;;11.25;11.25;;;;;22.03;47.14;99128.56;5035704;28;45363;-75
2022/11/22 01:23:59;;;;;;;;;9.00;9.00;;;;;21.94;47.39;99108.69;5035548;28;46070;-76
2022/11/22 01:26:24;;;;;;;;;11.75;8.00;;;;;22.10;47.29;99125.81;5035703;28;45423;-76
2022/11/22 01:28:49;;;;;;;;;11.00;10.00;;;;;22.12;47.70;99128.25;5035641;28;45401;-75
2022/11/22 01:31:14;;;;;;;;;9.00;8.00;;;;;22.04;47.58;99114.25;5035268;28;45311;-75
2022/11/22 01:33:40;;;;;;;;;9.50;9.00;;;;;22.06;47.51;99116.72;5035484;28;46725;-75
2022/11/22 01:36:05;;;;;;;;;9.75;9.75;;;;;22.11;46.98;99123.97;5035516;28;45449;-75
2022/11/22 01:38:30;;;;;;;;;9.25;8.00;;;;;22.06;47.10;99116.72;5035687;28;45429;-75
2022/11/22 01:40:56;;;;;;;;;8.75;8.00;;;;;22.10;47.10;99125.00;5035550;28;45380;-75
2022/11/22 01:43:24;;;;;;;;;9.00;8.50;;;;;22.10;47.61;99123.16;5035321;28;46112;-75
2022/11/22 01:45:55;;;;;;;;;9.25;9.25;;;;;21.81;47.32;99086.59;5034938;28;45327;-75
2022/11/22 01:48:20;;;;;;;;;8.67;8.67;;;;;22.09;47.79;99121.56;5035412;28;45433;-75
2022/11/22 01:50:50;;;;;;;;;9.00;9.00;;;;;22.10;47.05;99132.94;5035290;28;45246;-76
2022/11/22 01:53:21;;;;;;;;;9.50;8.50;;;;;21.91;47.05;99104.63;5035032;28;45599;-75
2022/11/22 01:55:50;;;;;;;;;8.25;8.25;;;;;22.05;47.27;99120.38;5035283;28;45291;-75
2022/11/22 01:58:18;;;;;;;;;8.75;7.25;;;;;22.07;46.91;99128.91;5034978;28;45280;-75
2022/11/22 02:00:43;;;;;;;;;8.50;8.00;;;;;21.93;46.87;99115.03;5034925;28;45386;-75
2022/11/22 02:03:13;;;;;;;;;9.25;8.00;;;;;21.81;46.86;99091.09;5034751;28;46187;-75
2022/11/22 02:05:38;;;;;;;;;7.00;7.00;;;;;21.97;47.16;99118.84;5035250;28;45427;-75
2022/11/22 02:08:18;;;;;;;;;9.25;9.25;;;;;21.89;46.78;99103.25;5017224;28;45468;-75
2022/11/22 02:10:49;;;;;;;;;9.25;6.75;;;;;22.03;46.58;99119.78;5035229;28;45346;-76
2022/11/22 02:13:17;;;;;;;;;7.25;7.25;;;;;22.07;46.72;99127.06;5034825;28;46233;-74
2022/11/22 02:15:42;;;;;;;;;8.00;8.00;;;;;22.03;47.02;99114.50;5034769;28;45436;-76
2022/11/22 02:18:08;;;;;;;;;8.00;8.00;;;;;21.99;46.78;99102.75;5035170;28;45386;-76
2022/11/22 02:20:34;;;;;;;;;7.75;7.00;;;;;21.95;46.88;99103.19;5036557;28;45420;-75
2022/11/22 02:23:30;;;;;;;;;7.00;7.00;;;;;22.07;47.06;99123.59;5038332;28;45339;-75
2022/11/22 02:25:58;;;;;;;;;9.00;6.00;;;;;22.06;46.96;99127.28;5038253;28;45287;-76
2022/11/22 02:28:29;;;;;;;;;7.00;6.75;;;;;22.00;46.97;99107.00;5038150;28;45414;-76
2022/11/22 02:30:54;;;;;;;;;9.00;7.00;;;;;22.06;46.47;99119.34;5038255;28;45295;-76
2022/11/22 02:33:19;;;;;;;;;6.50;6.00;;;;;22.06;46.85;99122.00;5038224;28;46536;-76
2022/11/22 02:35:46;;;;;;;;;9.50;9.50;;;;;21.89;46.60;99092.66;5038296;28;45373;-76
2022/11/22 02:38:16;;;;;;;;;8.00;7.00;;;;;22.05;47.00;99123.03;5038375;28;45318;-76
2022/11/22 02:40:49;;;;;;;;;6.00;6.00;;;;;22.04;46.89;99119.56;5038189;28;45253;-76
2022/11/22 02:43:19;;;;;;;;;6.75;5.00;;;;;21.93;46.85;99104.44;5037464;28;47408;-76
2022/11/22 02:45:44;;;;;;;;;6.00;6.00;;;;;21.91;46.78;99094.03;5038207;28;45609;-76
2022/11/22 02:48:12;;;;;;;;;8.75;8.75;;;;;22.01;46.61;99098.03;5038133;28;45383;-76
2022/11/22 02:50:38;;;;;;;;;7.75;6.00;;;;;21.91;46.53;99072.09;5038199;28;45577;-77
2022/11/22 02:53:05;;;;;;;;;6.67;6.33;;;;;22.04;46.62;99089.66;5037904;28;45377;-75
2022/11/22 02:55:30;;;;;;;;;7.00;7.00;;;;;22.04;46.70;99087.78;5037873;28;45295;-76
2022/11/22 02:57:56;;;;;;;;;9.00;7.00;;;;;22.03;46.80;99088.81;5037533;28;45449;-76
2022/11/22 03:00:21;;;;;;;;;5.75;5.75;;;;;21.96;46.45;99074.88;5037791;28;45350;-76
2022/11/22 03:02:47;;;;;;;;;6.00;6.00;;;;;22.04;46.65;99082.47;5019710;28;48501;-75
2022/11/22 03:05:12;;;;;;;;;6.00;6.00;;;;;21.95;46.55;99068.75;5037720;28;45435;-76
2022/11/22 03:07:38;;;;;;;;;7.00;7.00;;;;;21.98;46.29;99066.69;5037943;28;45591;-76
2022/11/22 03:10:03;;;;;;;;;6.00;6.00;;;;;21.95;46.18;99066.09;5037822;28;45255;-75
2022/11/22 03:12:29;;;;;;;;;5.33;5.33;;;;;21.79;46.16;99034.91;5037417;28;46689;-75
2022/11/22 03:14:54;;;;;;;;;4.67;4.67;;;;;21.98;46.68;99059.56;5037538;28;45184;-76
2022/11/22 03:17:19;;;;;;;;;5.33;5.33;;;;;21.98;46.43;99066.69;5037612;28;45392;-77
2022/11/22 03:19:45;;;;;;;;;4.67;4.67;;;;;22.01;46.29;99069.72;5037792;28;45345;-73
2022/11/22 03:22:10;;;;;;;;;6.00;5.67;;;;;21.87;46.47;99042.59;5037288;28;45235;-77
2022/11/22 03:24:35;;;;;;;;;5.75;5.75;;;;;22.02;46.68;99052.78;5037408;28;45327;-76
2022/11/22 03:27:00;;;;;;;;;6.67;6.67;;;;;21.88;46.73;99041.56;5037339;28;45226;-76
2022/11/22 03:29:26;;;;;;;;;5.67;5.00;;;;;21.85;46.55;99042.78;5037624;28;45304;-76
2022/11/22 03:31:51;;;;;;;;;5.00;5.00;;;;;21.90;46.19;99042.16;5037052;28;47376;-75
2022/11/22 03:34:16;;;;;;;;;5.00;5.00;;;;;21.97;46.34;99050.00;5019268;28;47040;-76
2022/11/22 03:36:42;;;;;;;;;5.33;5.33;;;;;21.88;46.46;99030.97;5037407;28;45300;-77
2022/11/22 03:39:07;;;;;;;;;7.67;5.33;;;;;21.91;46.43;99029.72;5037482;28;45217;-75
2022/11/22 03:41:33;;;;;;;;;4.00;4.00;;;;;21.89;46.39;99029.09;5036736;28;46006;-76
2022/11/22 03:43:58;;;;;;;;;5.00;4.00;;;;;21.82;46.12;99019.41;5037124;28;45513;-76
2022/11/22 03:46:23;;;;;;;;;5.00;5.00;;;;;21.99;46.34;99042.63;5037359;28;45634;-76
2022/11/22 03:48:49;;;;;;;;;5.33;5.00;;;;;21.73;46.11;99002.19;5037280;28;45523;-77
2022/11/22 03:51:14;;;;;;;;;4.67;4.67;;;;;22.01;46.10;99045.06;5036959;28;47338;-76
2022/11/22 03:53:39;;;;;;;;;4.00;4.00;;;;;21.93;46.53;99028.47;5037111;28;50447;-77
2022/11/22 03:56:05;;;;;;;;;5.33;4.67;;;;;21.79;46.54;99005.78;5041340;28;45459;-76
2022/11/22 03:58:31;;;;;;;;;6.33;4.00;;;;;22.01;46.33;99039.78;5036858;28;45440;-76
2022/11/22 04:00:57;;;;;;;;;6.00;6.00;;;;;22.01;45.97;99050.38;5036913;28;46965;-77
2022/11/22 04:03:22;;;;;;;;;5.67;4.00;;;;;22.01;46.48;99045.88;5036744;28;45390;-76
2022/11/22 04:05:48;;;;;;;;;6.00;5.00;;;;;21.96;45.85;99043.09;5036978;28;45467;-77
2022/11/22 04:08:13;;;;;;;;;3.00;3.00;;;;;22.02;45.87;99050.13;5036985;28;45511;-77
2022/11/22 04:10:38;;;;;;;;;3.33;3.33;;;;;21.95;46.26;99034.34;5036505;28;46489;-76
2022/11/22 04:13:04;;;;;;;;;4.67;4.67;;;;;22.01;45.97;99051.19;5036830;28;45507;-75
2022/11/22 04:15:29;;;;;;;;;4.00;4.00;;;;;21.98;45.77;99042.84;5036856;28;45204;-76
2022/11/22 04:17:54;;;;;;;;;5.00;5.00;;;;;21.82;46.13;99019.41;5036834;28;45307;-76
2022/11/22 04:23:13;;;;;;;;;5.00;3.33;;;;;21.91;45.74;99025.22;5036599;28;45539;-76
2022/11/22 04:25:44;;;;;;;;;4.67;4.00;;;;;21.96;45.84;99033.28;5036284;28;45283;-75
2022/11/22 04:28:10;;;;;;;;;4.75;4.50;;;;;21.96;46.00;99035.16;5036443;28;45545;-75
2022/11/22 04:33:21;;;;;;;;;3.00;3.00;;;;;21.77;46.07;99013.16;5036465;28;45594;-77
2022/11/22 04:35:47;;;;;;;;;3.00;2.67;;;;;21.85;46.16;99029.53;5036581;28;45403;-76
2022/11/22 04:38:14;;;;;;;;;3.00;3.00;;;;;21.70;46.41;99013.25;5036472;28;45384;-76
2022/11/22 04:40:40;;;;;;;;;3.67;3.67;;;;;21.82;46.13;99034.47;5035825;28;46052;-75
2022/11/22 04:45:51;;;;;;;;;3.33;3.33;;;;;21.90;45.91;99030.75;5036295;28;45381;-75
2022/11/22 04:48:17;;;;;;;;;5.67;4.67;;;;;21.79;45.64;99013.72;5036237;28;45298;-76
2022/11/22 04:53:27;;;;;;;;;5.00;3.33;;;;;21.90;46.21;99038.69;5035549;28;45316;-76
2022/11/22 04:55:53;;;;;;;;;4.00;3.00;;;;;21.95;46.05;99042.28;5036138;28;45446;-75
2022/11/22 04:58:19;;;;;;;;;5.00;4.00;;;;;21.72;45.88;98990.81;5035867;28;45616;-75
2022/11/22 05:00:44;;;;;;;;;2.00;2.00;;;;;21.70;46.26;98992.06;5036105;28;46250;-76
2022/11/22 05:03:10;;;;;;;;;4.00;2.67;;;;;21.69;46.12;98990.44;5035783;28;45366;-75
2022/11/22 05:05:37;;;;;;;;;3.00;3.00;;;;;21.91;45.54;99037.66;5035865;28;45267;-75
2022/11/22 05:08:04;;;;;;;;;3.33;3.33;;;;;21.92;46.09;99033.97;5035595;28;45546;-76
2022/11/22 05:10:55;;;;;;;;;2.33;2.33;;;;;21.94;45.71;99026.59;5035691;28;48004;-76
2022/11/22 05:13:20;;;;;;;;;4.00;4.00;;;;;21.93;46.09;99031.09;5034853;28;45355;-76
2022/11/22 05:15:46;;;;;;;;;4.00;3.00;;;;;21.95;46.18;99030.88;5035949;28;45400;-75
2022/11/22 05:18:11;;;;;;;;;3.00;3.00;;;;;21.76;46.14;99001.75;5035650;28;45486;-75
2022/11/22 05:20:37;;;;;;;;;3.00;3.00;;;;;21.83;45.84;99013.06;5035714;28;45926;-76
2022/11/22 05:25:46;;;;;;;;;3.00;3.00;;;;;21.88;45.72;99025.69;5035894;28;45410;-75
2022/11/22 05:28:11;;;;;;;;;2.67;2.67;;;;;21.87;45.75;99018.75;5035608;28;45351;-75
2022/11/22 05:30:40;;;;;;;;;3.00;3.00;;;;;21.97;45.91;99028.81;5035503;28;47188;-75
2022/11/22 05:33:06;;;;;;;;;2.00;2.00;;;;;21.85;46.06;99018.97;5035772;28;45327;-75
2022/11/22 05:35:32;;;;;;;;;3.33;3.00;;;;;21.94;45.93;99032.72;5035559;28;45275;-76
2022/11/22 05:37:57;;;;;;;;;3.00;3.00;;;;;21.92;45.53;99023.38;5035201;28;45585;-75
2022/11/22 05:40:23;;;;;;;;;2.00;2.00;;;;;21.57;45.91;98977.16;5017554;28;47290;-75
2022/11/22 05:42:48;;;;;;;;;3.00;3.00;;;;;21.93;45.93;99020.53;5017488;28;45374;-75
2022/11/22 05:45:14;;;;;;;;;4.00;3.67;;;;;21.92;45.34;99026.03;5035481;28;45389;-75
2022/11/22 05:47:39;;;;;;;;;3.33;2.00;;;;;21.97;45.84;99023.50;5035525;28;45405;-75
2022/11/22 05:50:05;;;;;;;;;3.67;2.00;;;;;21.72;45.62;98985.53;5035348;28;45410;-77
2022/11/22 05:52:30;;;;;;;;;1.00;1.00;;;;;21.68;45.52;98979.03;5034951;28;45452;-75
2022/11/22 05:54:56;;;;;;;;;6.67;4.00;;;;;21.91;45.97;99017.25;5035787;28;45382;-76
2022/11/22 05:57:21;;;;;;;;;2.67;2.67;;;;;21.93;45.73;99017.06;5038934;28;45244;-75
2022/11/22 05:59:46;;;;;;;;;3.00;3.00;;;;;21.91;45.54;99009.31;5020645;28;46307;-75
2022/11/22 06:02:12;;;;;;;;;2.00;2.00;;;;;21.88;45.75;99014.28;5038654;28;45315;-75
2022/11/22 06:04:37;;;;;;;;;2.00;2.00;;;;;21.78;45.28;98998.91;5038676;28;45346;-75
2022/11/22 06:07:02;;;;;;;;;1.00;1.00;;;;;21.02;45.61;98882.59;5038653;28;45484;-75
2022/11/22 06:09:27;;;;;;;;;1.00;1.00;;;;;21.90;45.35;99015.66;5038642;28;45374;-76
2022/11/22 06:11:53;;;;;;;;;3.33;3.33;;;;;21.87;45.82;99017.91;5038772;28;45552;-75
2022/11/22 06:14:18;;;;;;;;;5.00;3.00;;;;;21.90;45.28;99026.25;5038770;28;45355;-76
2022/11/22 06:16:44;;;;;;;;;2.00;2.00;;;;;21.83;45.68;99015.69;5038631;28;45292;-76
2022/11/22 06:19:09;;;;;;;;;1.00;1.00;;;;;21.73;45.30;99003.00;5038553;28;46027;-75
2022/11/22 06:21:34;;;;;;;;;2.00;2.00;;;;;21.92;45.74;99029.47;5020391;28;45237;-75
2022/11/22 06:24:00;;;;;;;;;3.00;2.00;;;;;21.88;45.75;99014.28;5038399;28;45364;-75
2022/11/22 06:26:26;;;;;;;;;2.00;2.00;;;;;21.92;45.43;99015.44;5038601;28;45473;-75
2022/11/22 06:28:51;;;;;;;;;1.67;1.67;;;;;21.92;45.18;99024.19;5038200;28;47060;-75
2022/11/22 06:31:19;;;;;;;;;2.00;2.00;;;;;21.92;45.22;99024.19;5038287;28;45349;-76
2022/11/22 06:33:44;;;;;;;;;3.00;2.00;;;;;21.66;45.19;98981.13;5038517;28;45478;-77
2022/11/22 06:36:18;;;;;;;;;3.33;2.00;;;;;21.91;45.30;99025.22;5038019;28;45538;-76
2022/11/22 06:38:44;;;;;;;;;1.67;1.67;;;;;21.72;45.40;98993.47;5038166;28;47413;-77
2022/11/22 06:41:13;;;;;;;;;2.00;2.00;;;;;21.91;45.62;99030.50;5038198;28;45339;-77
2022/11/22 06:43:41;;;;;;;;;4.00;3.00;;;;;21.90;45.73;99031.56;5038110;28;45344;-76
2022/11/22 06:46:07;;;;;;;;;1.00;1.00;;;;;21.86;45.19;99025.03;5038074;28;45193;-78
2022/11/22 06:48:35;;;;;;;;;2.67;2.00;;;;;21.54;45.77;98969.66;5037902;28;46509;-76
2022/11/22 06:51:04;;;;;;;;;1.00;1.00;;;;;21.92;45.78;99020.72;5037666;28;45407;-75
2022/11/22 06:53:34;;;;;;;;;0.67;0.67;;;;;21.83;45.23;99023.66;5037948;28;45463;-76
2022/11/22 06:56:05;;;;;;;;;3.00;2.00;;;;;21.93;45.71;99041.69;5037865;28;45295;-76
2022/11/22 06:58:31;;;;;;;;;3.33;1.00;;;;;21.82;45.28;99022.03;5037368;28;47291;-79
2022/11/22 07:01:12;;;;;;;;;2.00;2.00;;;;;21.88;46.01;99046.03;5036717;28;45322;-75
2022/11/22 07:03:39;;;;;;;;;1.00;1.00;;;;;21.84;45.92;99027.09;5036456;28;45239;-75
2022/11/22 07:06:06;;;;;;;;;2.33;1.33;;;;;21.77;46.01;99010.50;5036314;28;45469;-76
2022/11/22 07:08:32;;;;;;;;;1.00;1.00;;;;;21.79;46.77;99001.31;5036523;28;47160;-76
2022/11/22 07:11:04;;;;;;;;;2.00;1.00;;;;;21.87;46.98;99017.91;5036467;28;45395;-76
2022/11/22 07:13:30;;;;;;;;;2.67;2.00;;;;;22.00;47.19;99036.31;5036693;28;45270;-75
2022/11/22 07:15:57;;;;;;;;;2.00;1.00;;;;;22.01;46.42;99045.06;5036479;28;45375;-78
2022/11/22 07:18:23;;;;;;;;;1.33;1.33;;;;;21.84;46.87;99027.09;5035962;28;46257;-77
2022/11/22 07:20:49;;;;;;;;;2.33;1.00;;;;;21.91;46.66;99046.38;5036361;28;45671;-76
2022/11/22 07:23:14;;;;;;;;;1.00;1.00;;;;;21.92;46.80;99047.19;5036451;28;45309;-76
2022/11/22 07:25:47;;;;;;;;;0.33;0.00;;;;;21.98;46.70;99061.41;5036478;28;45314;-75
2022/11/22 07:28:13;;;;;;;;;0.00;0.00;;;;;21.67;47.05;99001.25;5036215;28;48893;-77
2022/11/22 07:30:39;;;;;;;;;2.00;1.00;;;;;21.88;46.62;99038.09;5036028;28;45347;-76
2022/11/22 07:33:05;;;;;;;;;2.00;0.33;;;;;21.95;46.47;99063.47;5035970;28;45437;-75
2022/11/22 07:35:30;;;;;;;;;1.00;1.00;;;;;21.98;46.61;99072.81;5036127;28;45330;-76
2022/11/22 07:37:56;;;;;;;;;0.00;0.00;;;;;21.77;46.62;99052.84;5036136;28;46249;-77
2022/11/22 07:40:21;;;;;;;;;1.00;1.00;;;;;21.81;46.36;99061.97;5036195;28;45487;-77
2022/11/22 07:42:46;;;;;;;;;2.67;1.00;;;;;21.72;46.66;99058.81;5036046;28;45476;-76
2022/11/22 07:45:12;;;;;;;;;1.00;1.00;;;;;21.87;46.60;99078.81;5036152;28;45490;-77
2022/11/22 07:47:37;;;;;;;;;1.00;1.00;;;;;21.50;46.46;99024.84;5035628;28;46404;-76
2022/11/22 07:50:03;;;;;;;;;3.00;1.00;;;;;21.72;46.56;99078.16;5017816;28;51710;-77
2022/11/22 07:52:28;;;;;;;;;2.00;1.00;;;;;21.70;46.86;99077.56;5035978;28;45394;-76
2022/11/22 07:54:53;;;;;;;;;1.00;1.00;;;;;21.85;46.98;99093.09;5014207;28;49675;-76
2022/11/22 07:57:19;;;;;;;;;1.00;1.00;;;;;21.96;46.38;99104.78;5015871;28;45399;-76
2022/11/22 07:59:44;;;;;;;;;1.00;1.00;;;;;21.97;46.93;99110.88;4976978;28;1131426;-76
2022/11/22 08:02:10;;;;;;;;;4.00;1.00;;;;;21.91;46.95;99107.28;5016860;28;45374;-76
2022/11/22 08:04:36;;;;;;;;;1.00;1.00;;;;;21.85;47.04;99113.44;5035135;28;45483;-76
2022/11/22 08:07:01;;;;;;;;;2.00;1.00;;;;;21.96;46.44;99138.41;5018905;28;47637;-76
2022/11/22 08:09:26;;;;;;;;;2.00;0.67;;;;;21.89;46.48;99133.19;5036928;28;45488;-76
2022/11/22 08:11:52;;;;;;;;;2.00;1.00;;;;;21.97;46.85;99142.66;5036758;28;45311;-76
2022/11/22 08:14:17;;;;;;;;;0.33;0.33;;;;;21.97;46.72;99153.25;5036973;28;45354;-75
2022/11/22 08:16:42;;;;;;;;;3.67;1.67;;;;;21.91;46.73;99152.28;5036410;28;45265;-76
2022/11/22 08:19:08;;;;;;;;;1.00;0.00;;;;;21.87;46.13;99158.22;5035831;28;45336;-77
2022/11/22 08:21:35;;;;;;;;;1.00;1.00;;;;;21.86;46.43;99160.06;5036958;28;45303;-76
2022/11/22 08:24:00;;;;;;;;;1.00;1.00;;;;;21.95;46.33;99172.03;5036613;28;45438;-76
2022/11/22 08:26:26;;;;;;;;;2.00;2.00;;;;;21.90;46.18;99147.22;5036392;28;45440;-76
2022/11/22 08:28:52;;;;;;;;;1.33;1.33;;;;;21.96;46.10;99156.94;5036478;28;45304;-77
2022/11/22 08:31:18;;;;;;;;;3.00;0.00;;;;;21.88;46.65;99150.13;5036220;28;45458;-75
2022/11/22 08:33:44;;;;;;;;;0.33;0.33;;;;;21.96;46.54;99157.75;5036606;28;45505;-77
2022/11/22 08:36:10;;;;;;;;;1.00;1.00;;;;;21.85;46.69;99147.88;5036335;28;45330;-76
2022/11/22 08:38:35;;;;;;;;;0.00;0.00;;;;;21.92;46.26;99153.13;5036378;28;45314;-76
2022/11/22 08:41:02;;;;;;;;;1.00;1.00;;;;;21.95;46.12;99179.97;5036432;28;45300;-76
2022/11/22 08:43:28;;;;;;;;;2.67;1.00;;;;;21.80;46.44;99151.19;5036281;28;45288;-76
2022/11/22 08:45:56;;;;;;;;;0.00;0.00;;;;;21.62;46.18;99118.34;5035578;28;46233;-76
2022/11/22 08:48:25;;;;;;;;;2.00;1.00;;;;;21.82;46.48;99150.94;5036277;28;45421;-76
2022/11/22 08:50:52;;;;;;;;;0.33;0.33;;;;;21.95;46.17;99172.03;5036362;28;45385;-76
2022/11/22 08:53:17;;;;;;;;;2.00;1.67;;;;;21.82;46.55;99151.75;5036070;28;45430;-76
2022/11/22 08:55:43;;;;;;;;;0.00;0.00;;;;;21.62;46.57;99144.03;5018058;28;47597;-76
2022/11/22 08:58:08;;;;;;;;;1.00;1.00;;;;;21.92;46.10;99203.41;5035906;28;45471;-75
2022/11/22 09:00:33;;;;;;;;;0.33;0.33;;;;;21.92;46.09;99203.41;5035899;28;45294;-77
2022/11/22 09:02:59;;;;;;;;;1.00;1.00;;;;;21.93;46.54;99213.81;5035884;28;45301;-76
2022/11/22 09:05:24;;;;;;;;;0.00;0.00;;;;;21.93;45.96;99216.47;5035864;28;46560;-76
2022/11/22 09:07:49;;;;;;;;;0.00;0.00;;;;;21.77;46.28;99167.50;5036113;28;45434;-76
2022/11/22 09:10:15;;;;;;;;;0.00;0.00;;;;;21.89;46.35;99185.31;5036133;28;45760;-76
2022/11/22 09:12:46;;;;;;;;;0.33;0.33;;;;;21.78;46.09;99169.09;5036010;28;45386;-76
2022/11/22 09:15:12;;;;;;;;;2.67;1.00;;;;;21.90;45.91;99177.16;5035412;28;45271;-75
2022/11/22 09:17:38;;;;;;;;;1.00;0.00;;;;;21.93;46.01;99183.88;5035939;28;45286;-76
2022/11/22 09:20:04;;;;;;;;;0.00;0.00;;;;;21.77;45.97;99145.50;5035832;28;45355;-76
2022/11/22 09:22:30;;;;;;;;;0.33;0.00;;;;;21.74;46.21;99142.28;5035918;28;45646;-75
2022/11/22 09:24:55;;;;;;;;;1.33;1.33;;;;;21.78;45.90;99165.66;5035663;28;45368;-76
2022/11/22 09:27:20;;;;;;;;;0.00;0.00;;;;;21.92;46.41;99180.41;5035465;28;45501;-75
2022/11/22 09:29:46;;;;;;;;;0.67;0.00;;;;;21.86;45.93;99173.28;5035465;28;45313;-75
2022/11/22 09:32:11;;;;;;;;;1.00;1.00;;;;;21.62;46.15;99147.47;5035777;28;45423;-76
2022/11/22 09:34:36;;;;;;;;;0.00;0.00;;;;;21.93;45.88;99191.81;5035469;28;46076;-75
2022/11/22 09:37:01;;;;;;;;;2.00;0.00;;;;;21.79;46.14;99167.28;5017739;28;45445;-75
2022/11/22 09:39:27;;;;;;;;;2.33;0.33;;;;;21.82;46.00;99172.13;5035700;28;45709;-75
2022/11/22 09:42:10;;;;;;;;;0.67;0.67;;;;;21.93;45.99;99202.41;5035602;28;45362;-75
2022/11/22 09:44:51;;;;;;;;;0.00;0.00;;;;;21.93;46.04;99202.41;5034945;28;46069;-75
2022/11/22 09:47:51;;;;;;;;;1.00;1.00;;;;;21.82;45.87;99174.78;5035366;28;45331;-76
2022/11/22 09:50:20;;;;;;;;;0.00;0.00;;;;;21.92;45.90;99193.66;5035487;28;45363;-76
2022/11/22 09:52:54;;;;;;;;;2.00;1.00;;;;;21.84;46.02;99189.41;5035382;28;45390;-75
2022/11/22 09:55:27;;;;;;;;;1.00;0.33;;;;;21.92;45.34;99200.78;5034982;28;46136;-75
2022/11/22 09:58:03;;;;;;;;;0.00;0.00;;;;;21.93;46.33;99195.28;5034878;28;45426;-76
2022/11/22 10:00:29;;;;;;;;;2.67;1.00;;;;;21.89;45.82;99186.13;5035196;28;45575;-75
2022/11/22 10:03:29;;;;;;;;;0.00;0.00;;;;;21.94;46.17;99201.34;5035073;28;45379;-74
2022/11/22 10:06:00;;;;;;;;;1.00;1.00;;;;;21.75;45.68;99174.84;4973206;28;46525;-75
2022/11/22 10:08:34;;;;;;;;;0.00;0.00;;;;;21.93;45.76;99213.81;4973847;28;45358;-75
2022/11/22 10:11:02;;;;;;;;;0.00;0.00;;;;;21.93;45.78;99213.81;4973813;28;45341;-76
2022/11/22 10:13:37;;;;;;;;;2.00;0.00;;;;;21.94;45.79;99210.13;4973489;28;45323;-76
2022/11/22 10:16:18;;;;;;;;;1.00;1.00;;;;;21.94;46.23;99209.31;4973427;28;45539;-76
2022/11/22 10:19:02;;;;;;;;;0.00;0.00;;;;;21.80;45.72;99180.31;4973611;28;45437;-76
2022/11/22 10:21:27;;;;;;;;;0.00;0.00;;;;;21.94;45.73;99199.53;4973729;28;45355;-75
2022/11/22 10:23:53;;;;;;;;;0.00;0.00;;;;;21.82;46.10;99178.25;4973548;28;45420;-76
2022/11/22 10:26:28;;;;;;;;;0.00;0.00;;;;;21.90;45.98;99187.75;4973345;28;45393;-75
2022/11/22 10:29:16;;;;;;;;;1.33;1.00;;;;;21.70;45.68;99156.97;4973373;28;45317;-75
2022/11/22 10:32:10;;;;;;;;;2.33;0.67;;;;;21.93;46.12;99192.63;4973455;28;45358;-76
2022/11/22 10:34:58;;;;;;;;;0.00;0.00;;;;;21.93;46.13;99189.16;4973405;28;45281;-75
2022/11/22 10:37:27;;;;;;;;;0.00;0.00;;;;;21.93;45.67;99203.22;4973617;28;47398;-76
2022/11/22 10:39:59;;;;;;;;;0.00;0.00;;;;;21.84;46.26;99193.91;4975396;28;45423;-77
2022/11/22 10:43:01;;;;;;;;;3.00;1.00;;;;;21.76;45.97;99175.66;4994229;28;45420;-75
2022/11/22 10:45:33;;;;;;;;;0.00;0.00;;;;;21.93;45.77;99213.00;5021072;28;45462;-75
2022/11/22 10:48:26;;;;;;;;;0.00;0.00;;;;;21.93;46.01;99203.22;5038036;28;45517;-76
2022/11/22 10:51:23;;;;;;;;;2.00;0.33;;;;;21.94;46.10;99204.00;5038303;28;45283;-75
2022/11/22 10:54:13;;;;;;;;;0.33;0.33;;;;;21.94;46.24;99214.59;5037951;28;45429;-76
2022/11/22 10:56:45;;;;;;;;;0.00;0.00;;;;;21.90;45.83;99203.66;5037715;28;45537;-75
2022/11/22 10:59:23;;;;;;;;;0.33;0.33;;;;;21.96;45.92;99217.84;5037610;28;46243;-76
2022/11/22 11:02:02;;;;;;;;;1.00;0.67;;;;;21.95;45.72;99211.75;5038115;28;45282;-76
2022/11/22 11:04:32;;;;;;;;;0.00;0.00;;;;;21.82;45.71;99196.78;5037755;28;45490;-75
2022/11/22 11:07:00;;;;;;;;;0.00;0.00;;;;;21.94;45.50;99212.75;5038036;28;45355;-75
2022/11/22 11:09:43;;;;;;;;;0.00;0.00;;;;;21.92;45.70;99217.47;5037641;28;47108;-75
2022/11/22 11:12:14;;;;;;;;;1.00;1.00;;;;;21.50;46.38;99159.81;5037431;28;45493;-75
2022/11/22 11:15:04;;;;;;;;;0.00;0.00;;;;;21.61;46.26;99168.88;5037716;28;45260;-74
2022/11/22 11:17:35;;;;;;;;;1.00;1.00;;;;;21.96;45.62;99220.50;5037113;28;45597;-75
2022/11/22 11:20:11;;;;;;;;;2.00;0.00;;;;;21.88;45.99;99212.84;5019556;28;47652;-75
2022/11/22 11:22:37;;;;;;;;;0.00;0.00;;;;;21.96;45.77;99220.50;5037432;28;45333;-75
2022/11/22 11:25:32;;;;;;;;;0.00;0.00;;;;;21.96;46.02;99204.63;5037254;28;45322;-75
2022/11/22 11:28:11;;;;;;;;;0.00;0.00;;;;;21.96;45.62;99212.56;5037514;28;45328;-74
2022/11/22 11:30:50;;;;;;;;;1.00;1.00;;;;;21.98;46.15;99220.28;5037335;28;46312;-76
2022/11/22 11:33:24;;;;;;;;;1.00;1.00;;;;;21.92;46.05;99200.78;5037440;28;45366;-75
2022/11/22 11:35:54;;;;;;;;;1.00;1.00;;;;;21.88;45.89;99204.91;5037549;28;45389;-75
2022/11/22 11:38:27;;;;;;;;;0.00;0.00;;;;;21.99;45.73;99222.69;5037591;28;45441;-75
2022/11/22 11:40:53;;;;;;;;;1.00;0.00;;;;;21.95;46.05;99227.63;5036859;28;46168;-75
2022/11/22 11:43:20;;;;;;;;;1.00;1.00;;;;;21.92;46.00;99214.00;5037085;28;45272;-75
2022/11/22 11:45:46;;;;;;;;;0.00;0.00;;;;;21.99;45.59;99230.63;5037277;28;45969;-76
2022/11/22 11:48:36;;;;;;;;;1.00;1.00;;;;;21.95;45.59;99210.94;5037333;28;45454;-75
2022/11/22 11:51:30;;;;;;;;;0.67;0.00;;;;;21.65;45.70;99170.03;5037167;28;46380;-76